Latest Coastal Weather Observations for Yeppoon

IDQ60701

Issued at 12:11 pm EST Friday 28 August 2015 (issued every 10 minutes, with the page automatically refreshed every 10 minutes)

About coastal observations | Map of coastal stations | Coastal observations for QLD | Marine services | Other Formats
Station Details ID: 033294 Name: YEPPOON THE ESPLANADE Lat: -23.14 Lon: 150.75 Height: 5.5 m
Data from the previous 72 hours. | See also: Recent months at Yeppoon
Date/Time
EST
Temp

°C
Wind Pressure Rain
since 9am
mm
Weather Cloud Vis
km
Sea
Height
m
Swell
Dir
 
Speed
knots
Gust
knots
hPa Trend Height
m
Period
s
Dir
28/12:00pm 22.9 ENE 8 10 1020.2 - 0.0 - - - - - - -
28/11:30am 23.1 ENE 8 9 1020.6 - 0.0 - - - - - - -
28/11:00am 23.2 ENE 8 9 1021.2 - 0.0 - - - - - - -
28/10:30am 23.0 ENE 7 8 1021.5 - 0.0 - - - - - - -
28/10:00am 22.5 E 6 8 1021.7 - 0.0 - - - - - - -
28/09:30am 22.3 S 4 6 1021.9 - 0.0 - - - - - - -
28/09:00am 21.8 SSW 5 6 1022.0 - 0.0 - - - - - - -
28/08:30am 21.7 S 4 6 1021.8 - 0.0 - - - - - - -
28/08:00am 20.5 W 3 5 1021.5 - 0.0 - - - - - - -
28/07:30am 19.4 W 4 6 1021.2 - 0.0 - - - - - - -
28/07:00am 17.7 W 5 7 1021.0 - 0.0 - - - - - - -
28/06:30am 16.8 CALM 0 1 1020.4 - 0.0 - - - - - - -
28/06:00am 16.8 WSW 3 5 1020.3 - 0.0 - - - - - - -
28/05:30am 17.4 W 5 7 1020.1 - 0.0 - - - - - - -
28/05:00am 17.1 WSW 4 6 1019.6 - 0.0 - - - - - - -
28/04:30am 16.9 W 4 5 1019.3 - 0.0 - - - - - - -
28/04:00am 16.2 W 6 7 1019.4 - 0.0 - - - - - - -
28/03:30am 16.5 WSW 4 5 1019.2 - 0.0 - - - - - - -
28/03:00am 16.4 W 5 7 1019.5 - 0.0 - - - - - - -
28/02:30am 16.8 SW 4 5 1019.5 - 0.0 - - - - - - -
28/02:00am 17.3 W 3 5 1019.5 - 0.0 - - - - - - -
28/01:30am 17.4 WSW 4 5 1019.9 - 0.0 - - - - - - -
28/01:00am 17.8 SW 4 5 1020.2 - 0.0 - - - - - - -
28/12:30am 17.7 SW 4 5 1020.3 - 0.0 - - - - - - -
28/12:00am 18.2 S 3 4 1020.5 - 0.0 - - - - - - -
 
Date/Time
EST
Temp

°C
Wind Pressure Rain
since 9am
mm
Weather Cloud Vis
km
Sea
Height
m
Swell
Dir
 
Speed
knots
Gust
knots
hPa Trend Height
m
Period
s
Dir
27/11:30pm 19.0 NNE 1 3 1020.6 - 0.0 - - - - - - -
27/11:00pm 20.0 N 3 5 1020.9 - 0.0 - - - - - - -
27/10:30pm 20.7 N 5 7 1021.1 - 0.0 - - - - - - -
27/10:00pm 20.7 N 3 5 1021.3 - 0.0 - - - - - - -
27/09:30pm 20.9 N 4 7 1021.3 - 0.0 - - - - - - -
27/09:00pm 21.3 N 9 10 1021.1 - 0.0 - - - - - - -
27/08:30pm 21.3 N 6 9 1021.1 - 0.0 - - - - - - -
27/08:00pm 21.3 N 8 11 1020.7 - 0.0 - - - - - - -
27/07:30pm 21.7 N 10 13 1020.5 - 0.0 - - - - - - -
27/07:00pm 22.1 NNE 12 15 1020.1 - 0.0 - - - - - - -
27/06:30pm 22.0 NNE 11 12 1019.8 - 0.0 - - - - - - -
27/06:00pm 22.1 NNE 11 13 1019.5 - 0.0 - - - - - - -
27/05:30pm 22.2 NNE 11 13 1019.1 - 0.0 - - - - - - -
27/05:00pm 22.4 NE 12 14 1019.0 - 0.0 - - - - - - -
27/04:30pm 22.6 NE 11 13 1018.8 - 0.0 - - - - - - -
27/04:00pm 22.7 NE 12 13 1018.7 - 0.0 - - - - - - -
27/03:30pm 23.2 NE 10 12 1018.8 - 0.0 - - - - - - -
27/03:00pm 23.8 NE 9 11 1018.7 - 0.0 - - - - - - -
27/02:30pm 23.3 NE 8 9 1018.8 - 0.0 - - - - - - -
27/02:00pm 23.6 NE 9 10 1019.0 - 0.0 - - - - - - -
27/01:30pm 23.6 NE 9 10 1019.2 - 0.0 - - - - - - -
27/01:00pm 23.5 NE 9 10 1019.7 - 0.0 - - - - - - -
27/12:30pm 23.7 NE 8 10 1020.3 - 0.0 - - - - - - -
27/12:00pm 23.7 NE 6 8 1021.0 - 0.0 - - - - - - -
27/11:30am 23.5 NE 9 10 1021.0 - 0.0 - - - - - - -
27/11:00am 23.1 NE 7 9 1021.4 - 0.0 - - - - - - -
27/10:30am 23.1 ENE 6 7 1021.9 - 0.0 - - - - - - -
27/10:00am 22.9 ENE 5 6 1022.2 - 0.0 - - - - - - -
27/09:30am 22.4 NE 4 5 1022.3 - 0.0 - - - - - - -
27/09:00am 22.2 CALM 0 0 1022.5 - 0.0 - - - - - - -
27/08:30am 20.3 W 4 5 1022.1 - 0.0 - - - - - - -
27/08:00am 19.0 WNW 4 5 1021.9 - 0.0 - - - - - - -
27/07:30am 16.8 W 5 7 1021.5 - 0.0 - - - - - - -
27/07:00am 16.2 W 5 6 1021.3 - 0.0 - - - - - - -
27/06:30am 15.7 W 5 6 1020.9 - 0.0 - - - - - - -
27/06:00am 15.4 W 5 6 1020.4 - 0.0 - - - - - - -
27/05:30am 15.4 WSW 3 5 1020.2 - 0.0 - - - - - - -
27/05:00am 15.6 W 3 5 1019.8 - 0.0 - - - - - - -
27/04:30am 15.9 W 5 5 1019.9 - 0.0 - - - - - - -
27/04:00am 16.5 WSW 4 6 1020.1 - 0.0 - - - - - - -
27/03:30am 16.8 WSW 5 6 1020.1 - 0.0 - - - - - - -
27/03:00am 16.8 W 4 5 1020.4 - 0.0 - - - - - - -
27/02:30am 16.9 W 4 6 1020.4 - 0.0 - - - - - - -
27/02:00am 16.8 W 5 7 1020.8 - 0.0 - - - - - - -
27/01:30am 17.1 SW 4 5 1020.7 - 0.0 - - - - - - -
27/01:00am 17.3 W 4 5 1020.9 - 0.0 - - - - - - -
27/12:30am 17.6 SW 3 4 1021.1 - 0.0 - - - - - - -
27/12:00am 18.3 CALM 0 0 1021.3 - 0.0 - - - - - - -
 
Date/Time
EST
Temp

°C
Wind Pressure Rain
since 9am
mm
Weather Cloud Vis
km
Sea
Height
m
Swell
Dir
 
Speed
knots
Gust
knots
hPa Trend Height
m
Period
s
Dir
26/11:30pm 19.1 N 3 4 1021.3 - 0.0 - - - - - - -
26/11:00pm 19.8 NNW 3 6 1021.5 - 0.0 - - - - - - -
26/10:30pm 19.9 NNW 3 5 1021.5 - 0.0 - - - - - - -
26/10:00pm 20.2 NNW 4 6 1021.4 - 0.0 - - - - - - -
26/09:30pm 20.3 N 5 7 1021.3 - 0.0 - - - - - - -
26/09:00pm 20.6 N 7 8 1021.2 - 0.0 - - - - - - -
26/08:30pm 20.7 N 7 10 1021.1 - 0.0 - - - - - - -
26/08:00pm 21.1 N 10 12 1020.6 - 0.0 - - - - - - -
26/07:30pm 21.8 NNE 16 18 1020.3 - 0.0 - - - - - - -
26/07:00pm 21.8 NNE 17 19 1019.9 - 0.0 - - - - - - -
26/06:30pm 21.9 NNE 17 19 1019.7 - 0.0 - - - - - - -
26/06:00pm 21.9 NNE 15 17 1019.4 - 0.0 - - - - - - -
26/05:30pm 22.0 NNE 15 17 1019.0 - 0.0 - - - - - - -
26/05:00pm 22.3 NNE 15 18 1018.8 - 0.0 - - - - - - -
26/04:30pm 22.4 NNE 16 18 1018.4 - 0.0 - - - - - - -
26/04:00pm 22.8 NNE 16 18 1018.2 - 0.0 - - - - - - -
26/03:30pm 23.0 NNE 14 17 1018.0 - 0.0 - - - - - - -
26/03:00pm 23.1 NNE 14 17 1018.0 - 0.0 - - - - - - -
26/02:30pm 23.4 NNE 15 18 1018.4 - 0.0 - - - - - - -
26/02:00pm 23.9 NNE 14 16 1018.9 - 0.0 - - - - - - -
26/01:30pm 24.0 NNE 13 15 1019.2 - 0.0 - - - - - - -
26/01:00pm 24.1 NNE 13 15 1019.6 - 0.0 - - - - - - -
26/12:30pm 24.0 NNE 11 13 1020.1 - 0.0 - - - - - - -
26/12:00pm 24.0 NNE 9 12 1020.6 - 0.0 - - - - - - -
26/11:30am 23.4 NNE 8 10 1021.3 - 0.0 - - - - - - -
26/11:00am 23.3 NE 8 9 1021.6 - 0.0 - - - - - - -
26/10:30am 22.8 NE 8 9 1021.8 - 0.0 - - - - - - -
26/10:00am 22.6 ENE 6 7 1022.1 - 0.0 - - - - - - -
26/09:30am 22.0 ENE 5 6 1022.3 - 0.0 - - - - - - -
26/09:00am 22.6 NE 7 8 1022.2 - 0.0 - - - - - - -
26/08:30am 21.7 ENE 3 6 1021.9 - 0.0 - - - - - - -
26/08:00am 20.5 CALM 0 0 1021.8 - 0.0 - - - - - - -
26/07:30am 18.2 W 2 3 1021.6 - 0.0 - - - - - - -
26/07:00am 16.8 W 3 3 1021.2 - 0.0 - - - - - - -
26/06:30am 16.4 W 3 5 1020.6 - 0.0 - - - - - - -
26/06:00am 16.5 WSW 4 5 1020.5 - 0.0 - - - - - - -
26/05:30am 16.5 W 5 6 1020.2 - 0.0 - - - - - - -
26/05:00am 16.7 W 4 5 1019.8 - 0.0 - - - - - - -
26/04:30am 17.0 W 3 5 1019.4 - 0.0 - - - - - - -
26/04:00am 16.8 W 5 6 1019.4 - 0.0 - - - - - - -
26/03:30am 17.2 W 5 6 1019.4 - 0.0 - - - - - - -
26/03:00am 17.1 W 5 6 1019.7 - 0.0 - - - - - - -
26/02:30am 17.2 W 5 7 1019.9 - 0.0 - - - - - - -
26/02:00am 17.5 SW 4 5 1019.8 - 0.0 - - - - - - -
26/01:30am 17.7 SSW 1 4 1020.0 - 0.0 - - - - - - -
26/01:00am 18.1 WSW 1 4 1020.0 - 0.0 - - - - - - -
26/12:30am 18.8 CALM 0 0 1020.4 - 0.0 - - - - - - -
26/12:00am 19.0 SW 2 5 1020.7 - 0.0 - - - - - - -
 
Date/Time
EST
Temp

°C
Wind Pressure Rain
since 9am
mm
Weather Cloud Vis
km
Sea
Height
m
Swell
Dir
 
Speed
knots
Gust
knots
hPa Trend Height
m
Period
s
Dir
25/11:30pm 20.0 NW 5 6 1020.5 - 0.0 - - - - - - -
25/11:00pm 20.3 WSW 4 6 1020.6 - 0.0 - - - - - - -
25/10:30pm 20.3 WSW 1 3 1020.5 - 0.0 - - - - - - -
25/10:00pm 20.6 NW 3 6 1020.6 - 0.0 - - - - - - -
25/09:30pm 20.7 NW 4 6 1020.5 - 0.0 - - - - - - -
25/09:00pm 20.8 N 7 10 1020.4 - 0.0 - - - - - - -
25/08:30pm 21.0 N 8 11 1020.1 - 0.0 - - - - - - -
25/08:00pm 21.2 N 11 13 1019.9 - 0.0 - - - - - - -
25/07:30pm 21.6 N 13 14 1019.5 - 0.0 - - - - - - -
25/07:00pm 22.0 N 16 19 1019.0 - 0.0 - - - - - - -
25/06:30pm 22.0 N 17 20 1018.7 - 0.0 - - - - - - -
25/06:00pm 22.1 N 18 21 1018.3 - 0.0 - - - - - - -
25/05:30pm 22.2 N 18 21 1018.2 - 0.0 - - - - - - -
25/05:00pm 22.3 N 16 18 1018.2 - 0.0 - - - - - - -
25/04:30pm 22.5 NNE 15 17 1018.2 - 0.0 - - - - - - -
25/04:00pm 22.8 NNE 14 16 1018.2 - 0.0 - - - - - - -
25/03:30pm 23.1 NNE 14 17 1018.4 - 0.0 - - - - - - -
25/03:00pm 23.4 NNE 13 16 1018.6 - 0.0 - - - - - - -
25/02:30pm 23.8 NNE 12 15 1018.8 - 0.0 - - - - - - -
25/02:00pm 23.7 NNE 9 11 1019.0 - 0.0 - - - - - - -
25/01:30pm 23.8 NNE 9 10 1019.4 - 0.0 - - - - - - -
25/01:00pm 23.4 NNE 10 11 1019.7 - 0.0 - - - - - - -
25/12:30pm 23.2 NNE 8 10 1020.1 - 0.0 - - - - - - -

Other Formats:

Comma delimited format used in spreadsheet applications
http://www.bom.gov.au/fwo/IDQ60701/IDQ60701.94373.axf

JavaScript Object Notation format (JSON) in row-major order
http://www.bom.gov.au/fwo/IDQ60701/IDQ60701.94373.json